Time;durP1;ratioP1;P1;durP2;ratioP2;P2;SDS_P1;SDS_P2;PMS_P1;PMS_P2;Temp;Humidity;BMP_temperature;BMP_pressure;BME280_temperature;BME280_humidity;BME280_pressure;Samples;Min_cycle;Max_cycle;Signal;HPM_P1;HPM_P2
2023/02/14 03:40:32;;;;;;;;;32.75;30.25;;;;;16.95;40.78;102986.16;5057749;28;46457;-72
2023/02/14 03:43:05;;;;;;;;;29.00;29.00;;;;;17.28;41.49;102990.06;5039948;28;45812;-73
2023/02/14 03:45:38;;;;;;;;;24.25;22.75;;;;;17.69;41.75;102960.34;5035463;27;45563;-72
2023/02/14 03:48:10;;;;;;;;;35.75;31.50;;;;;18.41;41.70;102981.00;5062521;27;45536;-74
2023/02/14 03:50:39;;;;;;;;;28.25;28.25;;;;;18.87;41.67;102960.66;5046751;28;45806;-72
2023/02/14 03:53:07;;;;;;;;;27.25;26.00;;;;;19.32;41.73;102942.97;5045987;28;45514;-72
2023/02/14 03:55:43;;;;;;;;;27.25;27.25;;;;;19.88;41.15;102955.06;5046129;28;45759;-73
2023/02/14 03:58:15;;;;;;;;;24.50;23.50;;;;;20.21;40.82;102939.69;5036792;28;45487;-73
2023/02/14 04:00:42;;;;;;;;;28.00;27.00;;;;;20.87;40.93;102982.47;5045218;28;45465;-75
2023/02/14 04:03:11;;;;;;;;;29.75;27.00;;;;;21.19;40.54;102984.97;5046506;28;45562;-73
2023/02/14 04:05:41;;;;;;;;;26.50;25.50;;;;;21.45;40.01;102983.28;5040244;28;46236;-71
2023/02/14 04:08:06;;;;;;;;;33.75;28.25;;;;;21.69;39.91;102979.06;5046882;28;45458;-73
2023/02/14 04:10:32;;;;;;;;;28.25;28.25;;;;;21.91;39.76;102972.25;5044183;28;46402;-71
2023/02/14 04:12:57;;;;;;;;;34.50;28.75;;;;;22.10;39.72;102977.28;5047069;28;45407;-73
2023/02/14 04:15:22;;;;;;;;;29.75;28.75;;;;;22.32;39.23;102979.38;5045273;27;45853;-73
2023/02/14 04:20:31;;;;;;;;;29.00;29.00;;;;;22.63;38.90;102976.38;5041757;28;45896;-73
2023/02/14 04:22:57;;;;;;;;;25.50;25.50;;;;;22.76;39.19;102984.50;5045500;27;45379;-74
2023/02/14 04:25:22;;;;;;;;;25.00;24.75;;;;;22.84;38.60;102983.97;5045141;27;45800;-73
2023/02/14 04:27:48;;;;;;;;;31.75;30.00;;;;;22.96;38.51;102991.22;5046140;27;45504;-74
2023/02/14 04:30:14;;;;;;;;;27.75;26.50;;;;;23.09;38.63;102977.63;5045471;28;46271;-74
2023/02/14 04:32:40;;;;;;;;;32.50;29.00;;;;;23.17;38.26;102979.78;5034427;28;45535;-73
2023/02/14 04:35:05;;;;;;;;;29.75;29.25;;;;;23.29;38.32;102978.91;5033490;28;45702;-73
2023/02/14 04:37:31;;;;;;;;;29.50;25.75;;;;;23.43;38.18;102982.47;5043617;28;45467;-73
2023/02/14 04:39:56;;;;;;;;;31.00;29.50;;;;;23.53;38.27;102988.06;5040398;27;46404;-75
2023/02/14 04:42:21;;;;;;;;;29.00;28.75;;;;;23.62;38.28;102979.25;5039944;28;48579;-72
2023/02/14 04:44:47;;;;;;;;;30.00;27.25;;;;;23.72;37.91;102984.84;5045924;28;45755;-72
2023/02/14 04:47:12;;;;;;;;;27.75;26.50;;;;;23.77;37.60;102990.78;5045724;27;52852;-72
2023/02/14 04:49:37;;;;;;;;;23.75;23.00;;;;;23.87;37.85;102996.34;5043403;28;46041;-72
2023/02/14 04:52:04;;;;;;;;;26.50;24.50;;;;;23.94;37.48;102991.34;5030938;28;45516;-72
2023/02/14 04:54:29;;;;;;;;;27.75;24.75;;;;;24.05;37.28;102985.97;5032292;28;45477;-73
2023/02/14 04:56:55;;;;;;;;;25.25;25.25;;;;;24.14;37.41;102991.69;5014061;27;46147;-72
2023/02/14 04:59:21;;;;;;;;;23.75;21.00;;;;;24.20;37.13;102988.53;5022057;28;46094;-72
2023/02/14 05:01:46;;;;;;;;;30.25;25.75;;;;;24.31;37.26;102998.53;5032461;28;45540;-72
2023/02/14 05:04:12;;;;;;;;;24.75;24.25;;;;;24.37;37.27;102983.63;5032098;28;45428;-72
2023/02/14 05:06:37;;;;;;;;;29.25;26.25;;;;;24.46;37.05;102993.75;5032678;28;50119;-72
2023/02/14 05:09:02;;;;;;;;;24.00;24.00;;;;;24.50;36.74;102995.25;5052797;27;52800;-73
2023/02/14 05:11:28;;;;;;;;;24.50;23.00;;;;;24.53;36.87;102996.84;5032787;28;48028;-73
2023/02/14 05:13:54;;;;;;;;;29.00;27.25;;;;;24.54;36.64;102995.84;5031319;28;45420;-72
2023/02/14 05:16:20;;;;;;;;;25.00;24.00;;;;;24.58;36.67;102990.09;5031157;27;45404;-74
2023/02/14 05:18:45;;;;;;;;;25.00;24.25;;;;;24.61;36.60;102992.53;5033122;28;46099;-74
2023/02/14 05:21:11;;;;;;;;;25.50;23.25;;;;;24.65;36.62;102995.03;5031970;28;45369;-74
2023/02/14 05:23:37;;;;;;;;;22.75;22.50;;;;;24.66;36.74;102994.91;5031348;28;45435;-74
2023/02/14 05:26:02;;;;;;;;;23.25;21.50;;;;;24.68;36.50;102992.06;5032251;28;45425;-74
2023/02/14 05:28:28;;;;;;;;;22.50;22.50;;;;;24.73;36.32;102993.41;5031401;28;45604;-74
2023/02/14 05:30:53;;;;;;;;;24.50;24.50;;;;;24.76;36.45;102988.75;5033053;28;45461;-74
2023/02/14 05:33:18;;;;;;;;;27.50;26.50;;;;;24.78;36.46;102986.75;5031349;28;45476;-73
2023/02/14 05:35:44;;;;;;;;;26.25;25.50;;;;;24.78;36.37;102984.03;5032360;28;48209;-75
2023/02/14 05:38:09;;;;;;;;;26.50;25.50;;;;;24.80;36.09;102982.06;5121858;27;46136;-74
2023/02/14 05:40:35;;;;;;;;;25.00;25.00;;;;;24.83;36.24;102976.41;5017232;27;45422;-74
2023/02/14 05:43:00;;;;;;;;;25.00;25.00;;;;;24.85;36.34;102979.88;5031662;28;45402;-74
2023/02/14 05:45:25;;;;;;;;;25.50;24.00;;;;;24.90;36.26;102976.78;5030037;27;45379;-74
2023/02/14 05:47:50;;;;;;;;;26.50;26.50;;;;;24.93;36.27;102974.69;5032605;28;46424;-75
2023/02/14 05:50:16;;;;;;;;;24.50;24.50;;;;;24.95;35.66;102978.16;5029990;28;50360;-75
2023/02/14 05:52:42;;;;;;;;;21.75;20.75;;;;;25.00;36.27;102975.94;5032751;28;45379;-73
2023/02/14 05:55:08;;;;;;;;;24.25;24.25;;;;;25.05;36.06;102980.97;5025134;27;45691;-74
2023/02/14 05:57:33;;;;;;;;;24.00;21.50;;;;;25.08;35.79;102993.44;5024071;27;45717;-76
2023/02/14 05:59:59;;;;;;;;;23.25;22.75;;;;;25.07;36.23;102986.28;5027345;28;45401;-75
2023/02/14 06:02:24;;;;;;;;;24.50;24.50;;;;;25.05;35.75;102993.72;5037924;27;45639;-75
2023/02/14 06:04:50;;;;;;;;;28.75;25.75;;;;;25.00;36.01;102981.34;5036774;28;45583;-75
2023/02/14 06:07:15;;;;;;;;;29.00;26.50;;;;;24.97;35.64;102983.47;5028979;27;46147;-75
2023/02/14 06:09:41;;;;;;;;;28.00;27.00;;;;;24.93;35.64;102981.97;5029835;28;46030;-76
2023/02/14 06:12:06;;;;;;;;;28.75;25.00;;;;;24.91;35.67;102983.94;5028839;28;47749;-74
2023/02/14 06:14:31;;;;;;;;;26.25;24.75;;;;;24.88;35.66;102982.34;5027501;27;45514;-78
2023/02/14 06:16:57;;;;;;;;;25.25;25.25;;;;;24.86;35.35;102977.03;5023793;28;47085;-74
2023/02/14 06:19:22;;;;;;;;;26.25;23.00;;;;;24.86;35.23;102981.63;5030677;28;45432;-74
2023/02/14 06:21:48;;;;;;;;;27.25;25.25;;;;;24.84;35.39;102989.00;5031266;28;45546;-74
2023/02/14 06:24:13;;;;;;;;;29.00;27.25;;;;;24.83;35.23;102980.00;5028170;28;45524;-74
2023/02/14 06:26:38;;;;;;;;;28.25;27.25;;;;;24.81;35.18;102984.66;5030268;28;46033;-74
2023/02/14 06:29:04;;;;;;;;;26.25;24.25;;;;;24.81;35.20;102987.38;5028208;28;45521;-74
2023/02/14 06:31:29;;;;;;;;;24.50;23.50;;;;;24.82;35.30;102980.97;5029811;28;45923;-73
2023/02/14 06:33:55;;;;;;;;;29.75;29.00;;;;;24.83;35.16;102982.72;5019221;27;45426;-74
2023/02/14 06:36:21;;;;;;;;;25.25;23.00;;;;;24.83;34.89;102980.00;5028720;28;46281;-74
2023/02/14 06:38:47;;;;;;;;;26.75;25.50;;;;;24.82;34.87;102972.81;5030488;28;45848;-73
2023/02/14 06:41:15;;;;;;;;;25.25;24.50;;;;;24.86;35.06;102977.03;5028883;27;46140;-74
2023/02/14 06:43:41;;;;;;;;;31.00;27.50;;;;;24.85;34.86;102972.59;5020045;28;45470;-72
2023/02/14 06:46:06;;;;;;;;;30.00;28.75;;;;;24.87;35.13;102986.03;5030515;28;46227;-73
2023/02/14 06:48:31;;;;;;;;;33.00;31.00;;;;;24.85;34.83;102979.88;5026429;28;45486;-73
2023/02/14 06:50:57;;;;;;;;;35.00;32.25;;;;;24.81;35.03;102973.78;5017861;28;45438;-73
2023/02/14 06:53:22;;;;;;;;;30.25;29.00;;;;;24.82;34.89;102982.81;5019718;28;45497;-74
2023/02/14 06:55:48;;;;;;;;;30.00;29.75;;;;;24.86;34.72;102979.75;5016093;28;45458;-74
2023/02/14 06:58:13;;;;;;;;;32.50;30.00;;;;;24.88;34.83;102981.50;5017507;27;45315;-73
2023/02/14 07:00:38;;;;;;;;;27.25;25.25;;;;;24.88;35.00;102985.06;5025956;28;45679;-74
2023/02/14 07:03:05;;;;;;;;;26.75;26.00;;;;;24.88;34.66;102982.34;5022453;28;45785;-75
2023/02/14 07:05:30;;;;;;;;;30.75;30.25;;;;;24.86;34.62;102987.88;5017339;28;45499;-75
2023/02/14 07:07:56;;;;;;;;;31.00;28.50;;;;;24.84;34.64;102995.31;5025215;27;45531;-77
2023/02/14 07:10:21;;;;;;;;;31.50;29.25;;;;;24.83;34.53;102995.44;5033535;27;45379;-72
2023/02/14 07:12:46;;;;;;;;;29.50;28.75;;;;;24.79;34.55;102996.63;5032180;27;52841;-73
2023/02/14 07:15:12;;;;;;;;;34.75;30.75;;;;;24.78;34.56;103003.94;5013072;28;52381;-73
2023/02/14 07:17:38;;;;;;;;;27.25;26.50;;;;;24.75;34.32;102998.72;5031785;28;45540;-73
2023/02/14 07:20:05;;;;;;;;;30.50;29.25;;;;;24.74;34.51;102997.84;5032059;28;45737;-73
2023/02/14 07:22:31;;;;;;;;;29.75;29.25;;;;;24.73;34.45;102995.28;5030184;28;45545;-73
2023/02/14 07:24:56;;;;;;;;;32.75;30.50;;;;;24.72;34.59;103004.38;5030926;27;46219;-73
2023/02/14 07:27:22;;;;;;;;;28.25;28.25;;;;;24.76;34.47;103003.16;5031728;28;45498;-73
2023/02/14 07:29:47;;;;;;;;;31.75;29.25;;;;;24.77;34.21;103002.16;5030824;27;45713;-74
2023/02/14 07:32:12;;;;;;;;;27.50;25.50;;;;;24.77;34.39;103002.16;5030606;28;52992;-74
2023/02/14 07:34:37;;;;;;;;;27.75;27.25;;;;;24.79;34.41;103010.19;5028987;27;51210;-74
2023/02/14 07:37:03;;;;;;;;;31.25;29.50;;;;;24.75;34.34;102996.00;5027308;28;45469;-75
2023/02/14 07:39:28;;;;;;;;;31.50;27.25;;;;;24.77;34.40;103002.16;5008383;28;45391;-75
2023/02/14 07:41:53;;;;;;;;;29.25;27.00;;;;;24.79;34.40;102997.50;5027189;27;45557;-75
2023/02/14 07:44:19;;;;;;;;;27.50;27.50;;;;;24.80;34.21;103003.81;5026517;27;46076;-75
2023/02/14 07:46:44;;;;;;;;;30.75;27.25;;;;;24.82;34.40;103004.53;5023091;27;45492;-76
2023/02/14 07:49:10;;;;;;;;;30.50;26.75;;;;;24.87;34.41;103010.50;5027817;27;45434;-75
2023/02/14 07:51:36;;;;;;;;;25.50;23.50;;;;;24.92;34.22;102999.25;5035371;28;45656;-75
2023/02/14 07:54:01;;;;;;;;;28.25;25.25;;;;;24.97;34.10;102997.91;5049765;28;48864;-75
2023/02/14 07:56:26;;;;;;;;;25.25;25.25;;;;;25.07;34.17;102995.31;5034525;27;46192;-75
2023/02/14 07:58:52;;;;;;;;;30.25;30.25;;;;;25.16;34.22;102992.81;5021966;27;45578;-73
2023/02/14 08:01:17;;;;;;;;;33.75;30.25;;;;;25.21;34.15;102985.16;5028722;27;51217;-73
2023/02/14 08:03:44;;;;;;;;;31.75;30.00;;;;;25.26;33.77;102991.09;5019691;27;45816;-75
2023/02/14 08:06:10;;;;;;;;;36.25;28.75;;;;;25.23;34.13;102992.22;5028264;27;45628;-73
2023/02/14 08:08:36;;;;;;;;;31.75;27.75;;;;;25.22;33.73;102997.75;5029734;28;45320;-73
2023/02/14 08:11:01;;;;;;;;;26.50;25.00;;;;;25.17;33.86;102989.97;5022174;28;45615;-73
2023/02/14 08:13:27;;;;;;;;;29.75;25.50;;;;;25.23;33.91;102991.34;5027495;28;46766;-73
2023/02/14 08:16:04;;;;;;;;;29.00;28.50;;;;;25.24;33.82;102993.06;5036009;28;49283;-73
2023/02/14 08:18:32;;;;;;;;;29.25;28.00;;;;;25.23;33.54;102984.06;5034010;28;45483;-73
2023/02/14 08:20:57;;;;;;;;;24.50;24.50;;;;;25.26;33.06;102994.66;5046227;28;45476;-73
2023/02/14 08:23:22;;;;;;;;;23.50;23.50;;;;;25.28;34.09;103008.13;5037735;28;46651;-73
2023/02/14 08:25:49;;;;;;;;;34.00;32.00;;;;;25.29;33.90;102992.69;5039602;28;45762;-73
2023/02/14 08:28:15;;;;;;;;;29.75;27.25;;;;;25.31;33.80;103004.28;5045616;28;45501;-73
2023/02/14 08:30:42;;;;;;;;;22.00;22.00;;;;;25.29;33.89;102990.81;5046541;28;45415;-73
2023/02/14 08:33:08;;;;;;;;;26.00;25.25;;;;;25.33;33.64;102999.59;5009417;27;47546;-73
2023/02/14 08:35:34;;;;;;;;;27.25;24.25;;;;;25.31;33.32;102994.28;5023825;27;45445;-72
2023/02/14 08:38:00;;;;;;;;;29.25;28.50;;;;;25.29;33.69;103001.69;5026528;27;45870;-73
2023/02/14 08:40:25;;;;;;;;;29.00;27.75;;;;;25.25;33.58;102998.38;5016373;27;46584;-72
2023/02/14 08:42:51;;;;;;;;;30.00;29.25;;;;;25.21;33.46;103004.16;5026445;28;45315;-73
2023/02/14 08:45:17;;;;;;;;;29.50;28.50;;;;;25.17;33.51;102997.28;5023570;27;45471;-72
2023/02/14 08:47:42;;;;;;;;;33.25;30.25;;;;;25.17;33.54;103008.16;5019778;27;45511;-73
2023/02/14 08:50:10;;;;;;;;;31.50;25.50;;;;;25.17;33.53;103009.00;5033079;28;45932;-72
2023/02/14 08:52:37;;;;;;;;;31.75;28.25;;;;;25.17;33.55;103010.88;5023665;28;45553;-72
2023/02/14 08:55:03;;;;;;;;;27.50;25.50;;;;;25.19;33.78;103009.75;5028702;28;45661;-72
2023/02/14 08:57:29;;;;;;;;;27.75;27.75;;;;;25.20;33.75;103016.03;5031203;28;45578;-72
2023/02/14 08:59:54;;;;;;;;;30.75;29.00;;;;;25.19;33.75;103011.59;5030417;28;47102;-72
2023/02/14 09:02:19;;;;;;;;;31.00;25.00;;;;;25.22;33.66;103012.19;5025284;28;46422;-73
2023/02/14 09:04:45;;;;;;;;;29.75;27.50;;;;;25.25;33.55;103020.13;5027896;28;45480;-72
2023/02/14 09:07:11;;;;;;;;;27.00;26.75;;;;;25.28;33.76;103013.56;5030663;28;45605;-73
2023/02/14 09:09:37;;;;;;;;;27.50;27.50;;;;;25.27;33.94;103015.41;5049347;27;45431;-73
2023/02/14 09:12:04;;;;;;;;;32.00;28.00;;;;;25.29;33.74;103006.28;5030579;27;45523;-74
2023/02/14 09:14:33;;;;;;;;;29.00;26.50;;;;;25.27;34.03;102996.38;5014562;28;45687;-74
2023/02/14 09:17:00;;;;;;;;;24.50;21.75;;;;;25.30;34.16;102992.53;5091383;27;45299;-74
2023/02/14 09:19:25;;;;;;;;;29.75;27.50;;;;;25.32;34.45;102993.31;5027930;28;45513;-75
2023/02/14 09:21:50;;;;;;;;;30.00;27.50;;;;;25.33;33.95;102991.44;5027080;28;46103;-75
2023/02/14 09:24:16;;;;;;;;;28.25;23.50;;;;;25.33;33.97;102980.56;5031298;27;45534;-74
2023/02/14 09:26:42;;;;;;;;;26.25;26.25;;;;;25.34;34.03;102983.16;5031993;28;45472;-75
2023/02/14 09:29:07;;;;;;;;;27.00;26.25;;;;;25.36;33.86;102980.31;5017566;28;45444;-74
2023/02/14 09:31:32;;;;;;;;;26.50;24.25;;;;;25.36;34.02;102978.47;5009322;27;46561;-73
2023/02/14 09:33:58;;;;;;;;;28.75;24.00;;;;;25.35;33.79;102974.03;5038098;28;45718;-72
2023/02/14 09:36:23;;;;;;;;;35.25;27.50;;;;;25.34;34.00;102980.44;5035135;28;45390;-71
2023/02/14 09:38:48;;;;;;;;;34.25;26.25;;;;;25.31;34.30;102978.00;5030758;28;46109;-70
2023/02/14 09:41:29;;;;;;;;;34.50;26.25;;;;;25.32;34.13;102978.84;5032601;28;48126;-71
2023/02/14 09:44:03;;;;;;;;;30.75;28.50;;;;;25.31;33.94;102979.84;5028831;28;45579;-70
2023/02/14 09:46:33;;;;;;;;;27.50;26.50;;;;;25.30;34.14;102973.50;5031268;27;45809;-71
2023/02/14 09:48:58;;;;;;;;;29.25;27.75;;;;;25.29;34.21;102979.94;5030487;28;45351;-71
2023/02/14 09:51:27;;;;;;;;;30.25;28.75;;;;;25.29;34.02;102976.38;5030905;28;46424;-71
2023/02/14 09:54:00;;;;;;;;;37.75;31.00;;;;;25.27;34.32;102966.47;5012099;28;45354;-71
2023/02/14 09:56:38;;;;;;;;;27.75;26.25;;;;;25.27;34.10;102962.91;5034557;28;45507;-72
2023/02/14 09:59:26;;;;;;;;;31.25;25.75;;;;;25.26;33.97;102975.63;5036915;28;45421;-71
2023/02/14 10:02:01;;;;;;;;;23.50;23.50;;;;;25.29;34.04;102962.78;5023006;27;46226;-72
2023/02/14 10:04:36;;;;;;;;;30.00;29.00;;;;;25.30;34.17;102967.22;5030613;28;45748;-73
2023/02/14 10:07:08;;;;;;;;;36.25;32.25;;;;;25.29;33.85;102966.34;5024565;28;45485;-72
2023/02/14 10:09:39;;;;;;;;;35.25;32.25;;;;;25.27;33.92;102974.63;5028600;28;45655;-73
2023/02/14 10:12:22;;;;;;;;;33.00;31.00;;;;;25.21;33.92;102980.59;5046469;27;45634;-71
2023/02/14 10:14:49;;;;;;;;;36.00;32.75;;;;;25.18;33.89;102972.69;5015249;27;45560;-70
2023/02/14 10:17:32;;;;;;;;;35.75;31.00;;;;;25.18;33.61;102971.81;5027291;27;45531;-70
2023/02/14 10:20:13;;;;;;;;;33.75;31.50;;;;;25.21;33.72;102968.84;5024601;28;45535;-70
2023/02/14 10:22:45;;;;;;;;;36.00;32.25;;;;;25.27;33.71;102981.94;5031606;27;45516;-72
2023/02/14 10:25:13;;;;;;;;;31.50;29.50;;;;;25.29;33.90;102974.50;5026841;27;45623;-72
2023/02/14 10:27:43;;;;;;;;;31.50;30.25;;;;;25.29;33.96;102973.66;5024195;27;45365;-72
2023/02/14 10:30:20;;;;;;;;;29.25;27.25;;;;;25.29;33.70;102965.53;5034915;28;45613;-72
2023/02/14 10:33:03;;;;;;;;;31.25;29.50;;;;;25.33;33.86;102969.69;5028118;28;46148;-72
2023/02/14 10:35:43;;;;;;;;;32.75;30.00;;;;;25.39;33.75;102961.88;5027246;28;45410;-72
2023/02/14 10:38:25;;;;;;;;;36.00;32.25;;;;;25.47;33.59;102960.41;5014061;27;45438;-72
2023/02/14 10:41:09;;;;;;;;;31.50;28.25;;;;;25.52;33.95;102959.03;5030652;28;45586;-72
2023/02/14 10:43:48;;;;;;;;;32.00;29.75;;;;;25.51;33.84;102953.72;5029614;27;46158;-72
2023/02/14 10:46:35;;;;;;;;;33.25;32.25;;;;;25.56;33.64;102962.38;5023371;28;45559;-73
2023/02/14 10:49:38;;;;;;;;;28.00;28.00;;;;;25.62;33.84;102950.09;5040089;28;45522;-72
2023/02/14 10:52:14;;;;;;;;;28.00;27.75;;;;;25.71;33.70;102945.75;5023884;27;45391;-73
2023/02/14 10:54:43;;;;;;;;;33.50;30.75;;;;;25.73;33.81;102939.19;5044806;27;46344;-74
2023/02/14 10:57:23;;;;;;;;;33.75;30.25;;;;;25.74;33.82;102942.75;5011886;27;45536;-72
2023/02/14 10:59:59;;;;;;;;;30.50;26.75;;;;;25.73;33.96;102932.88;5007728;27;45657;-72
2023/02/14 11:02:33;;;;;;;;;30.50;28.25;;;;;25.73;33.98;102930.16;5011105;28;45836;-72
2023/02/14 11:05:01;;;;;;;;;33.75;31.25;;;;;25.72;33.44;102920.28;5033029;28;46007;-71
2023/02/14 11:07:26;;;;;;;;;33.00;30.50;;;;;25.74;33.62;102913.72;5032525;28;45485;-71
2023/02/14 11:09:51;;;;;;;;;36.00;32.75;;;;;25.73;33.77;102912.00;5029840;28;45713;-72
2023/02/14 11:12:38;;;;;;;;;33.25;31.75;;;;;25.69;33.49;102909.66;5019346;28;45437;-72
2023/02/14 11:15:15;;;;;;;;;36.00;32.50;;;;;25.62;33.26;102907.47;5027939;27;45441;-73
2023/02/14 11:17:41;;;;;;;;;33.75;32.50;;;;;25.59;33.22;102906.88;5031250;28;45452;-73
2023/02/14 11:20:26;;;;;;;;;35.25;31.50;;;;;25.57;33.21;102912.44;5017616;27;45606;-73
2023/02/14 11:22:52;;;;;;;;;36.75;31.50;;;;;25.53;33.00;102898.22;5031401;28;45444;-72
2023/02/14 11:25:17;;;;;;;;;33.75;32.50;;;;;25.52;33.17;102896.50;5028728;28;45414;-72
2023/02/14 11:27:48;;;;;;;;;35.25;33.00;;;;;25.54;33.29;102893.63;5026263;27;45365;-72
2023/02/14 11:30:38;;;;;;;;;36.25;32.25;;;;;25.57;33.16;102887.09;5019469;27;45601;-73
2023/02/14 11:33:05;;;;;;;;;37.00;32.50;;;;;25.60;33.01;102884.13;5030950;28;45385;-73
2023/02/14 11:35:35;;;;;;;;;34.00;30.75;;;;;25.63;33.18;102876.56;5032128;28;45420;-73
2023/02/14 11:38:04;;;;;;;;;33.00;31.25;;;;;25.64;32.64;102870.16;5023034;28;45431;-73
2023/02/14 11:40:30;;;;;;;;;27.75;27.00;;;;;25.64;32.94;102872.88;5028656;28;45526;-73
2023/02/14 11:43:09;;;;;;;;;37.50;31.00;;;;;25.61;32.44;102864.09;5018386;28;45510;-74
2023/02/14 11:45:44;;;;;;;;;31.75;30.00;;;;;25.56;32.74;102855.47;5022343;28;46140;-73
2023/02/14 11:48:18;;;;;;;;;33.50;31.25;;;;;25.55;32.77;102861.88;5030280;28;45339;-74
2023/02/14 11:50:53;;;;;;;;;31.50;27.00;;;;;25.56;32.51;102859.06;5030206;28;45539;-74
2023/02/14 11:53:22;;;;;;;;;38.75;33.00;;;;;25.56;32.45;102850.91;5026189;28;45495;-74
2023/02/14 11:55:56;;;;;;;;;31.25;30.50;;;;;25.56;32.43;102852.75;5034660;28;45490;-74
2023/02/14 11:58:30;;;;;;;;;32.50;30.25;;;;;25.56;32.43;102853.63;5026915;28;45462;-74
2023/02/14 12:00:56;;;;;;;;;29.00;29.00;;;;;25.57;32.65;102844.47;5076552;27;45357;-74
2023/02/14 12:03:22;;;;;;;;;36.50;29.75;;;;;25.59;32.58;102839.75;5011316;27;45619;-74
2023/02/14 12:05:49;;;;;;;;;36.00;32.50;;;;;25.61;32.42;102843.22;5023960;28;45911;-74
2023/02/14 12:08:23;;;;;;;;;35.00;32.25;;;;;25.60;32.35;102841.50;5031492;28;45534;-75
2023/02/14 12:11:01;;;;;;;;;31.75;29.50;;;;;25.60;32.64;102832.47;5034721;27;45479;-74
2023/02/14 12:13:26;;;;;;;;;31.25;30.25;;;;;25.59;32.37;102831.59;5037964;27;45466;-74
2023/02/14 12:15:53;;;;;;;;;33.00;28.75;;;;;25.60;32.90;102822.47;5045880;28;48130;-74
2023/02/14 12:18:36;;;;;;;;;29.25;28.75;;;;;25.64;32.32;102817.59;5040131;28;45495;-74
2023/02/14 12:21:35;;;;;;;;;33.00;30.50;;;;;25.66;32.00;102804.72;5018140;28;45473;-74
2023/02/14 12:24:14;;;;;;;;;32.75;30.25;;;;;25.71;32.65;102815.22;5031584;28;45449;-74
2023/02/14 12:26:49;;;;;;;;;32.75;28.50;;;;;25.68;32.19;102804.59;5025416;27;45504;-72
2023/02/14 12:29:27;;;;;;;;;28.25;26.00;;;;;25.64;32.48;102794.00;5024628;28;45500;-72
2023/02/14 12:31:55;;;;;;;;;34.50;30.75;;;;;25.68;32.44;102794.59;5031529;27;45555;-73
2023/02/14 12:34:21;;;;;;;;;29.25;27.00;;;;;25.74;32.53;102785.91;5021370;27;45534;-71
2023/02/14 12:37:05;;;;;;;;;28.75;27.25;;;;;25.85;32.16;102782.25;5022755;28;46214;-71
2023/02/14 12:39:40;;;;;;;;;29.75;29.50;;;;;25.91;32.10;102778.97;5021650;28;45601;-71
2023/02/14 12:42:34;;;;;;;;;25.75;24.00;;;;;25.91;32.40;102776.25;5007187;27;45640;-71
2023/02/14 12:45:22;;;;;;;;;29.00;25.00;;;;;25.99;32.28;102772.00;5022633;28;47139;-71
2023/02/14 12:47:58;;;;;;;;;29.50;29.50;;;;;26.01;32.34;102778.16;5025556;27;46423;-72
2023/02/14 12:50:41;;;;;;;;;21.00;20.00;;;;;26.04;32.33;102775.16;5028562;27;45648;-71
2023/02/14 12:53:31;;;;;;;;;23.75;23.75;;;;;26.08;32.48;102760.28;5023927;28;45625;-71
2023/02/14 12:56:24;;;;;;;;;27.75;26.50;;;;;26.12;32.66;102753.56;5022956;28;45501;-70
2023/02/14 12:59:01;;;;;;;;;25.75;25.75;;;;;26.14;32.79;102746.13;5025464;27;45847;-70
2023/02/14 13:02:17;;;;;;;;;23.25;22.75;;;;;26.18;32.75;102744.00;5027135;28;45730;-71
2023/02/14 13:05:19;;;;;;;;;28.50;24.75;;;;;26.22;32.79;102737.28;5043794;28;45627;-71
2023/02/14 13:08:07;;;;;;;;;27.50;25.75;;;;;26.26;32.38;102735.16;5044153;28;45499;-71
2023/02/14 13:11:00;;;;;;;;;27.75;27.75;;;;;26.26;32.40;102727.88;5040448;28;46251;-71
2023/02/14 13:13:47;;;;;;;;;26.00;26.00;;;;;26.30;32.38;102715.69;5041973;28;45507;-71
2023/02/14 13:16:21;;;;;;;;;25.00;23.33;;;;;26.35;32.72;102719.88;5041699;28;45732;-72
2023/02/14 13:19:01;;;;;;;;;26.50;24.00;;;;;26.39;32.76;102721.28;5042797;28;45452;-74
2023/02/14 13:21:31;;;;;;;;;23.00;21.00;;;;;26.42;32.49;102712.84;5049343;28;45897;-70
2023/02/14 13:24:12;;;;;;;;;29.00;26.75;;;;;26.46;32.67;102694.38;5059180;28;45486;-71
2023/02/14 13:26:42;;;;;;;;;26.50;25.00;;;;;26.51;32.67;102708.41;5053882;28;45428;-71
2023/02/14 13:29:16;;;;;;;;;25.50;24.00;;;;;26.55;32.76;102698.97;5053225;28;45519;-72
2023/02/14 13:31:42;;;;;;;;;25.00;23.75;;;;;26.57;32.54;102692.38;5046738;28;45969;-71
2023/02/14 13:34:20;;;;;;;;;26.50;26.50;;;;;26.64;32.58;102683.66;5041383;28;45523;-70
2023/02/14 13:36:47;;;;;;;;;24.67;22.00;;;;;26.65;32.27;102685.38;5047899;28;45466;-71
2023/02/14 13:39:28;;;;;;;;;27.00;26.00;;;;;26.68;32.20;102682.34;5036483;28;45574;-71
2023/02/14 13:41:53;;;;;;;;;24.50;24.50;;;;;26.66;32.25;102676.19;5019486;27;46410;-70
2023/02/14 13:44:52;;;;;;;;;25.67;24.33;;;;;26.69;32.72;102670.47;5024302;27;45538;-71
2023/02/14 13:47:25;;;;;;;;;26.33;23.00;;;;;26.69;32.10;102673.19;5041750;28;45584;-72
2023/02/14 13:50:02;;;;;;;;;24.33;24.33;;;;;26.69;32.28;102671.31;5041781;28;45420;-72
2023/02/14 13:52:47;;;;;;;;;24.25;23.00;;;;;26.68;32.19;102672.31;5043016;28;45681;-79
2023/02/14 13:55:23;;;;;;;;;19.75;19.25;;;;;26.66;32.33;102662.56;5045299;28;45746;-78
2023/02/14 13:58:17;;;;;;;;;23.00;22.00;;;;;26.67;32.45;102656.97;5042741;28;45528;-77
2023/02/14 14:00:45;;;;;;;;;22.67;22.67;;;;;26.75;32.56;102656.25;5044900;28;47204;-80
2023/02/14 14:03:13;;;;;;;;;21.25;20.25;;;;;26.81;32.20;102652.09;5045018;28;46178;-78
2023/02/14 14:05:42;;;;;;;;;28.25;26.75;;;;;26.88;32.48;102661.41;5045152;28;46074;-82
2023/02/14 14:08:19;;;;;;;;;24.50;23.00;;;;;26.92;32.70;102651.94;5045832;28;45509;-78
2023/02/14 14:11:10;;;;;;;;;28.50;26.50;;;;;26.89;32.48;102654.09;5043237;28;46820;-79
2023/02/14 14:13:41;;;;;;;;;33.25;28.75;;;;;26.78;32.07;102655.09;5051487;28;47083;-77
2023/02/14 14:16:27;;;;;;;;;28.75;27.00;;;;;26.64;32.07;102645.53;5040959;28;45769;-78
2023/02/14 14:18:57;;;;;;;;;26.75;26.00;;;;;26.54;32.11;102645.50;5044603;28;45812;-78
2023/02/14 14:21:30;;;;;;;;;29.25;27.50;;;;;26.42;31.85;102640.22;5073165;28;45359;-78
2023/02/14 14:24:27;;;;;;;;;24.00;24.00;;;;;26.29;32.27;102637.75;5050817;28;45676;-77
2023/02/14 14:27:11;;;;;;;;;25.75;24.25;;;;;26.16;32.13;102634.44;5030850;28;46216;-78
2023/02/14 14:29:44;;;;;;;;;26.00;24.25;;;;;26.08;31.76;102639.69;5028763;28;45373;-79
2023/02/14 14:32:24;;;;;;;;;25.25;25.25;;;;;25.98;31.85;102631.50;5031918;28;45493;-78
2023/02/14 14:34:57;;;;;;;;;31.50;25.75;;;;;25.97;31.84;102635.22;5025476;28;45348;-77
2023/02/14 14:37:26;;;;;;;;;25.75;22.75;;;;;25.91;31.97;102621.19;5028839;27;45408;-77
2023/02/14 14:40:03;;;;;;;;;18.75;18.75;;;;;25.86;31.97;102630.75;5030591;28;45380;-77
2023/02/14 14:42:35;;;;;;;;;30.25;24.00;;;;;25.78;32.04;102626.00;5028367;28;45846;-77
2023/02/14 14:45:07;;;;;;;;;27.67;24.67;;;;;25.70;31.95;102620.44;5030799;28;45424;-78
2023/02/14 14:47:40;;;;;;;;;22.00;22.00;;;;;25.64;31.93;102614.53;5012069;28;45379;-76
2023/02/14 14:50:13;;;;;;;;;27.25;25.75;;;;;25.62;32.04;102607.50;5011852;28;45409;-77
2023/02/14 14:52:42;;;;;;;;;25.00;23.75;;;;;25.59;32.39;102607.78;5051711;28;45412;-77
2023/02/14 14:55:18;;;;;;;;;28.00;22.75;;;;;25.56;32.10;102611.66;5049835;28;46179;-77
2023/02/14 14:57:50;;;;;;;;;21.25;20.00;;;;;25.50;32.10;102606.72;5044872;28;45548;-79
2023/02/14 15:00:26;;;;;;;;;19.25;19.25;;;;;25.45;32.17;102601.69;5027570;28;45393;-79
2023/02/14 15:03:12;;;;;;;;;28.00;24.50;;;;;25.43;32.37;102608.25;5014217;27;45487;-76
2023/02/14 15:05:47;;;;;;;;;24.75;23.00;;;;;25.42;32.17;102601.09;5033970;28;45422;-79
2023/02/14 15:08:26;;;;;;;;;27.75;26.00;;;;;25.39;32.14;102605.81;5029909;28;45459;-79